sensor_id;sensor_type;location;lat;lon;timestamp;P1;durP1;ratioP1;P2;durP2;ratioP2
59189;SDS011;50749;51.636;4.948;2023-01-23T00:01:11;4.72;;;2.13;;
59189;SDS011;50749;51.636;4.948;2023-01-23T00:03:46;2.55;;;1.70;;
59189;SDS011;50749;51.636;4.948;2023-01-23T00:06:13;4.38;;;2.00;;
59189;SDS011;50749;51.636;4.948;2023-01-23T00:08:40;3.63;;;1.88;;
59189;SDS011;50749;51.636;4.948;2023-01-23T00:11:09;3.70;;;2.05;;
59189;SDS011;50749;51.636;4.948;2023-01-23T00:13:37;4.80;;;2.15;;
59189;SDS011;50749;51.636;4.948;2023-01-23T00:16:06;2.97;;;2.05;;
59189;SDS011;50749;51.636;4.948;2023-01-23T00:18:35;3.53;;;1.80;;
59189;SDS011;50749;51.636;4.948;2023-01-23T00:21:05;3.53;;;1.63;;
59189;SDS011;50749;51.636;4.948;2023-01-23T00:23:32;3.67;;;2.10;;
59189;SDS011;50749;51.636;4.948;2023-01-23T00:26:05;3.83;;;1.95;;
59189;SDS011;50749;51.636;4.948;2023-01-23T00:28:33;4.75;;;2.03;;
59189;SDS011;50749;51.636;4.948;2023-01-23T00:31:06;3.75;;;1.85;;
59189;SDS011;50749;51.636;4.948;2023-01-23T00:33:34;4.97;;;2.03;;
59189;SDS011;50749;51.636;4.948;2023-01-23T00:36:00;4.68;;;1.98;;
59189;SDS011;50749;51.636;4.948;2023-01-23T00:38:27;3.33;;;1.90;;
59189;SDS011;50749;51.636;4.948;2023-01-23T00:40:53;4.53;;;1.65;;
59189;SDS011;50749;51.636;4.948;2023-01-23T00:43:21;3.08;;;1.95;;
59189;SDS011;50749;51.636;4.948;2023-01-23T00:45:48;3.85;;;1.85;;
59189;SDS011;50749;51.636;4.948;2023-01-23T00:48:14;3.22;;;1.90;;
59189;SDS011;50749;51.636;4.948;2023-01-23T00:50:40;4.28;;;2.20;;
59189;SDS011;50749;51.636;4.948;2023-01-23T00:53:05;5.13;;;1.90;;
59189;SDS011;50749;51.636;4.948;2023-01-23T00:55:31;4.60;;;1.77;;
59189;SDS011;50749;51.636;4.948;2023-01-23T00:57:57;2.65;;;1.67;;
59189;SDS011;50749;51.636;4.948;2023-01-23T01:00:24;4.72;;;2.00;;
59189;SDS011;50749;51.636;4.948;2023-01-23T01:02:50;4.32;;;2.00;;
59189;SDS011;50749;51.636;4.948;2023-01-23T01:05:16;2.85;;;1.88;;
59189;SDS011;50749;51.636;4.948;2023-01-23T01:07:43;3.75;;;1.70;;
59189;SDS011;50749;51.636;4.948;2023-01-23T01:10:10;4.32;;;2.00;;
59189;SDS011;50749;51.636;4.948;2023-01-23T01:12:36;3.92;;;1.80;;
59189;SDS011;50749;51.636;4.948;2023-01-23T01:15:03;3.72;;;1.83;;
59189;SDS011;50749;51.636;4.948;2023-01-23T01:17:29;2.28;;;1.67;;
59189;SDS011;50749;51.636;4.948;2023-01-23T01:19:56;4.18;;;1.70;;
59189;SDS011;50749;51.636;4.948;2023-01-23T01:22:21;2.97;;;1.98;;
59189;SDS011;50749;51.636;4.948;2023-01-23T01:24:47;4.07;;;1.95;;
59189;SDS011;50749;51.636;4.948;2023-01-23T01:27:13;7.18;;;2.35;;
59189;SDS011;50749;51.636;4.948;2023-01-23T01:29:39;4.00;;;2.03;;
59189;SDS011;50749;51.636;4.948;2023-01-23T01:32:05;4.25;;;2.10;;
59189;SDS011;50749;51.636;4.948;2023-01-23T01:34:31;3.33;;;1.73;;
59189;SDS011;50749;51.636;4.948;2023-01-23T01:36:56;3.53;;;2.13;;
59189;SDS011;50749;51.636;4.948;2023-01-23T01:39:23;4.88;;;2.05;;
59189;SDS011;50749;51.636;4.948;2023-01-23T01:41:48;2.97;;;1.73;;
59189;SDS011;50749;51.636;4.948;2023-01-23T01:44:19;3.00;;;1.65;;
59189;SDS011;50749;51.636;4.948;2023-01-23T01:46:46;2.90;;;1.98;;
59189;SDS011;50749;51.636;4.948;2023-01-23T01:49:24;3.67;;;2.13;;
59189;SDS011;50749;51.636;4.948;2023-01-23T01:59:42;4.93;;;2.10;;
59189;SDS011;50749;51.636;4.948;2023-01-23T02:05:02;3.08;;;1.77;;
59189;SDS011;50749;51.636;4.948;2023-01-23T02:08:36;4.28;;;2.05;;
59189;SDS011;50749;51.636;4.948;2023-01-23T02:10:35;3.13;;;1.85;;
59189;SDS011;50749;51.636;4.948;2023-01-23T02:15:50;3.55;;;2.10;;
59189;SDS011;50749;51.636;4.948;2023-01-23T02:18:17;4.25;;;2.10;;
59189;SDS011;50749;51.636;4.948;2023-01-23T02:20:44;4.43;;;1.90;;
59189;SDS011;50749;51.636;4.948;2023-01-23T02:26:08;4.25;;;1.98;;
59189;SDS011;50749;51.636;4.948;2023-01-23T02:28:39;3.40;;;2.00;;
59189;SDS011;50749;51.636;4.948;2023-01-23T02:31:14;3.83;;;1.80;;
59189;SDS011;50749;51.636;4.948;2023-01-23T02:33:47;4.68;;;1.98;;
59189;SDS011;50749;51.636;4.948;2023-01-23T02:36:15;4.70;;;2.13;;
59189;SDS011;50749;51.636;4.948;2023-01-23T02:38:45;2.80;;;1.90;;
59189;SDS011;50749;51.636;4.948;2023-01-23T02:41:23;3.83;;;1.60;;
59189;SDS011;50749;51.636;4.948;2023-01-23T02:43:52;3.33;;;1.90;;
59189;SDS011;50749;51.636;4.948;2023-01-23T02:46:20;3.83;;;1.90;;
59189;SDS011;50749;51.636;4.948;2023-01-23T02:48:46;4.20;;;2.00;;
59189;SDS011;50749;51.636;4.948;2023-01-23T02:51:13;4.47;;;1.83;;
59189;SDS011;50749;51.636;4.948;2023-01-23T02:53:41;3.17;;;1.98;;
59189;SDS011;50749;51.636;4.948;2023-01-23T02:56:07;3.55;;;1.63;;
59189;SDS011;50749;51.636;4.948;2023-01-23T02:58:33;3.10;;;1.83;;
59189;SDS011;50749;51.636;4.948;2023-01-23T03:01:18;3.05;;;1.88;;
59189;SDS011;50749;51.636;4.948;2023-01-23T03:03:44;3.58;;;1.95;;
59189;SDS011;50749;51.636;4.948;2023-01-23T03:06:10;3.17;;;1.65;;
59189;SDS011;50749;51.636;4.948;2023-01-23T03:08:36;2.58;;;1.52;;
59189;SDS011;50749;51.636;4.948;2023-01-23T03:11:13;4.43;;;1.80;;
59189;SDS011;50749;51.636;4.948;2023-01-23T03:13:40;2.70;;;1.80;;
59189;SDS011;50749;51.636;4.948;2023-01-23T03:16:06;5.50;;;1.90;;
59189;SDS011;50749;51.636;4.948;2023-01-23T03:18:33;4.07;;;1.88;;
59189;SDS011;50749;51.636;4.948;2023-01-23T03:21:03;4.95;;;1.73;;
59189;SDS011;50749;51.636;4.948;2023-01-23T03:23:30;3.75;;;2.00;;
59189;SDS011;50749;51.636;4.948;2023-01-23T03:25:56;3.22;;;1.65;;
59189;SDS011;50749;51.636;4.948;2023-01-23T03:28:25;3.40;;;1.85;;
59189;SDS011;50749;51.636;4.948;2023-01-23T03:31:10;5.20;;;1.95;;
59189;SDS011;50749;51.636;4.948;2023-01-23T03:33:37;3.20;;;1.95;;
59189;SDS011;50749;51.636;4.948;2023-01-23T03:36:04;3.92;;;1.70;;
59189;SDS011;50749;51.636;4.948;2023-01-23T03:38:32;4.00;;;1.95;;
59189;SDS011;50749;51.636;4.948;2023-01-23T03:40:58;4.53;;;1.83;;
59189;SDS011;50749;51.636;4.948;2023-01-23T03:43:42;5.10;;;2.08;;
59189;SDS011;50749;51.636;4.948;2023-01-23T03:46:08;3.72;;;2.15;;
59189;SDS011;50749;51.636;4.948;2023-01-23T03:48:34;2.92;;;1.75;;
59189;SDS011;50749;51.636;4.948;2023-01-23T03:51:00;3.75;;;2.38;;
59189;SDS011;50749;51.636;4.948;2023-01-23T03:53:26;3.30;;;1.83;;
59189;SDS011;50749;51.636;4.948;2023-01-23T03:55:52;3.28;;;1.65;;
59189;SDS011;50749;51.636;4.948;2023-01-23T03:58:17;2.83;;;1.42;;
59189;SDS011;50749;51.636;4.948;2023-01-23T04:00:43;2.85;;;1.40;;
59189;SDS011;50749;51.636;4.948;2023-01-23T04:03:09;4.22;;;1.50;;
59189;SDS011;50749;51.636;4.948;2023-01-23T04:05:35;2.42;;;1.38;;
59189;SDS011;50749;51.636;4.948;2023-01-23T04:08:01;2.88;;;1.33;;
59189;SDS011;50749;51.636;4.948;2023-01-23T04:10:27;1.70;;;1.10;;
59189;SDS011;50749;51.636;4.948;2023-01-23T04:12:53;2.85;;;1.20;;
59189;SDS011;50749;51.636;4.948;2023-01-23T04:15:19;2.85;;;1.20;;
59189;SDS011;50749;51.636;4.948;2023-01-23T04:17:45;2.38;;;0.93;;
59189;SDS011;50749;51.636;4.948;2023-01-23T04:20:12;3.05;;;0.98;;
59189;SDS011;50749;51.636;4.948;2023-01-23T04:22:39;3.80;;;1.35;;
59189;SDS011;50749;51.636;4.948;2023-01-23T04:25:05;2.38;;;1.00;;
59189;SDS011;50749;51.636;4.948;2023-01-23T04:27:31;2.70;;;1.00;;
59189;SDS011;50749;51.636;4.948;2023-01-23T04:29:57;2.55;;;1.33;;
59189;SDS011;50749;51.636;4.948;2023-01-23T04:32:23;2.28;;;1.25;;
59189;SDS011;50749;51.636;4.948;2023-01-23T04:34:50;1.80;;;0.93;;
59189;SDS011;50749;51.636;4.948;2023-01-23T04:37:16;1.50;;;1.10;;
59189;SDS011;50749;51.636;4.948;2023-01-23T04:39:42;3.35;;;1.40;;
59189;SDS011;50749;51.636;4.948;2023-01-23T04:42:08;1.83;;;1.08;;
59189;SDS011;50749;51.636;4.948;2023-01-23T04:44:34;1.48;;;0.80;;
59189;SDS011;50749;51.636;4.948;2023-01-23T04:47:00;2.30;;;1.17;;
59189;SDS011;50749;51.636;4.948;2023-01-23T04:49:25;3.38;;;0.88;;
59189;SDS011;50749;51.636;4.948;2023-01-23T04:51:52;2.13;;;1.05;;
59189;SDS011;50749;51.636;4.948;2023-01-23T04:54:18;1.83;;;1.00;;
59189;SDS011;50749;51.636;4.948;2023-01-23T04:56:45;1.90;;;1.08;;
59189;SDS011;50749;51.636;4.948;2023-01-23T04:59:12;1.73;;;1.10;;
59189;SDS011;50749;51.636;4.948;2023-01-23T05:01:39;3.13;;;1.00;;
59189;SDS011;50749;51.636;4.948;2023-01-23T05:04:05;2.00;;;1.17;;
59189;SDS011;50749;51.636;4.948;2023-01-23T05:06:30;2.50;;;1.02;;
59189;SDS011;50749;51.636;4.948;2023-01-23T05:08:56;3.50;;;0.90;;
59189;SDS011;50749;51.636;4.948;2023-01-23T05:11:22;2.13;;;1.25;;
59189;SDS011;50749;51.636;4.948;2023-01-23T05:13:48;2.10;;;1.00;;
59189;SDS011;50749;51.636;4.948;2023-01-23T05:16:15;1.85;;;1.00;;
59189;SDS011;50749;51.636;4.948;2023-01-23T05:18:41;2.70;;;1.13;;
59189;SDS011;50749;51.636;4.948;2023-01-23T05:21:06;3.00;;;1.08;;
59189;SDS011;50749;51.636;4.948;2023-01-23T05:23:33;2.15;;;1.10;;
59189;SDS011;50749;51.636;4.948;2023-01-23T05:25:58;6.30;;;1.98;;
59189;SDS011;50749;51.636;4.948;2023-01-23T05:28:24;19.17;;;3.85;;
59189;SDS011;50749;51.636;4.948;2023-01-23T05:30:50;15.95;;;3.75;;
59189;SDS011;50749;51.636;4.948;2023-01-23T05:33:16;12.20;;;3.13;;
59189;SDS011;50749;51.636;4.948;2023-01-23T05:35:42;10.05;;;2.83;;
59189;SDS011;50749;51.636;4.948;2023-01-23T05:38:08;9.30;;;2.53;;
59189;SDS011;50749;51.636;4.948;2023-01-23T05:40:36;12.43;;;3.17;;
59189;SDS011;50749;51.636;4.948;2023-01-23T05:43:02;6.05;;;2.92;;
59189;SDS011;50749;51.636;4.948;2023-01-23T05:45:27;9.63;;;3.90;;
59189;SDS011;50749;51.636;4.948;2023-01-23T05:47:54;11.30;;;2.70;;
59189;SDS011;50749;51.636;4.948;2023-01-23T05:50:20;6.85;;;2.30;;
59189;SDS011;50749;51.636;4.948;2023-01-23T05:52:48;9.80;;;2.88;;
59189;SDS011;50749;51.636;4.948;2023-01-23T05:55:14;8.90;;;2.40;;
59189;SDS011;50749;51.636;4.948;2023-01-23T05:57:40;7.05;;;2.45;;
59189;SDS011;50749;51.636;4.948;2023-01-23T06:00:06;9.95;;;2.58;;
59189;SDS011;50749;51.636;4.948;2023-01-23T06:02:34;6.72;;;2.20;;
59189;SDS011;50749;51.636;4.948;2023-01-23T06:04:59;5.78;;;1.85;;
59189;SDS011;50749;51.636;4.948;2023-01-23T06:07:25;7.68;;;2.45;;
59189;SDS011;50749;51.636;4.948;2023-01-23T06:09:51;12.52;;;2.13;;
59189;SDS011;50749;51.636;4.948;2023-01-23T06:12:17;20.65;;;3.55;;
59189;SDS011;50749;51.636;4.948;2023-01-23T06:14:43;4.55;;;1.83;;
59189;SDS011;50749;51.636;4.948;2023-01-23T06:17:10;5.95;;;2.30;;
59189;SDS011;50749;51.636;4.948;2023-01-23T06:19:37;5.75;;;2.08;;
59189;SDS011;50749;51.636;4.948;2023-01-23T06:22:03;5.65;;;1.63;;
59189;SDS011;50749;51.636;4.948;2023-01-23T06:24:28;3.63;;;1.70;;
59189;SDS011;50749;51.636;4.948;2023-01-23T06:26:55;7.90;;;3.47;;
59189;SDS011;50749;51.636;4.948;2023-01-23T06:29:21;6.70;;;2.17;;
59189;SDS011;50749;51.636;4.948;2023-01-23T06:31:47;5.07;;;2.28;;
59189;SDS011;50749;51.636;4.948;2023-01-23T06:34:13;4.95;;;2.20;;
59189;SDS011;50749;51.636;4.948;2023-01-23T06:36:40;8.13;;;2.65;;
59189;SDS011;50749;51.636;4.948;2023-01-23T06:39:07;3.25;;;1.90;;
59189;SDS011;50749;51.636;4.948;2023-01-23T06:41:33;3.85;;;1.98;;
59189;SDS011;50749;51.636;4.948;2023-01-23T06:43:58;4.47;;;2.28;;
59189;SDS011;50749;51.636;4.948;2023-01-23T06:46:24;6.68;;;2.95;;
59189;SDS011;50749;51.636;4.948;2023-01-23T06:48:51;3.78;;;1.80;;
59189;SDS011;50749;51.636;4.948;2023-01-23T06:51:17;7.05;;;3.75;;
59189;SDS011;50749;51.636;4.948;2023-01-23T06:53:42;6.13;;;2.30;;
59189;SDS011;50749;51.636;4.948;2023-01-23T06:56:08;4.82;;;2.58;;
59189;SDS011;50749;51.636;4.948;2023-01-23T06:58:34;4.15;;;1.98;;
59189;SDS011;50749;51.636;4.948;2023-01-23T07:01:09;5.63;;;2.92;;
59189;SDS011;50749;51.636;4.948;2023-01-23T07:03:37;3.90;;;2.00;;
59189;SDS011;50749;51.636;4.948;2023-01-23T07:06:03;4.90;;;2.20;;
59189;SDS011;50749;51.636;4.948;2023-01-23T07:08:31;4.03;;;2.25;;
59189;SDS011;50749;51.636;4.948;2023-01-23T07:10:58;4.13;;;2.30;;
59189;SDS011;50749;51.636;4.948;2023-01-23T07:13:25;4.63;;;2.30;;
59189;SDS011;50749;51.636;4.948;2023-01-23T07:15:51;5.30;;;2.55;;
59189;SDS011;50749;51.636;4.948;2023-01-23T07:18:16;5.90;;;2.47;;
59189;SDS011;50749;51.636;4.948;2023-01-23T07:20:43;5.20;;;2.47;;
59189;SDS011;50749;51.636;4.948;2023-01-23T07:23:09;7.15;;;2.40;;
59189;SDS011;50749;51.636;4.948;2023-01-23T07:25:35;5.95;;;2.25;;
59189;SDS011;50749;51.636;4.948;2023-01-23T07:28:01;6.22;;;2.53;;
59189;SDS011;50749;51.636;4.948;2023-01-23T07:30:27;3.05;;;1.63;;
59189;SDS011;50749;51.636;4.948;2023-01-23T07:32:53;4.32;;;2.20;;
59189;SDS011;50749;51.636;4.948;2023-01-23T07:35:19;4.88;;;2.30;;
59189;SDS011;50749;51.636;4.948;2023-01-23T07:37:45;4.15;;;2.13;;
59189;SDS011;50749;51.636;4.948;2023-01-23T07:40:12;5.68;;;2.33;;
59189;SDS011;50749;51.636;4.948;2023-01-23T07:42:37;5.32;;;2.55;;
59189;SDS011;50749;51.636;4.948;2023-01-23T07:45:05;5.75;;;2.75;;
59189;SDS011;50749;51.636;4.948;2023-01-23T07:47:31;4.32;;;2.47;;
59189;SDS011;50749;51.636;4.948;2023-01-23T07:49:57;3.50;;;2.25;;
59189;SDS011;50749;51.636;4.948;2023-01-23T07:52:22;5.47;;;2.45;;
59189;SDS011;50749;51.636;4.948;2023-01-23T07:54:49;3.90;;;2.22;;
59189;SDS011;50749;51.636;4.948;2023-01-23T07:57:14;5.20;;;2.20;;
59189;SDS011;50749;51.636;4.948;2023-01-23T07:59:40;5.50;;;2.42;;
59189;SDS011;50749;51.636;4.948;2023-01-23T08:02:07;5.30;;;2.70;;
59189;SDS011;50749;51.636;4.948;2023-01-23T08:04:35;3.97;;;2.30;;
59189;SDS011;50749;51.636;4.948;2023-01-23T08:07:01;5.55;;;2.67;;
59189;SDS011;50749;51.636;4.948;2023-01-23T08:09:27;6.72;;;2.50;;
59189;SDS011;50749;51.636;4.948;2023-01-23T08:11:53;4.53;;;2.45;;
59189;SDS011;50749;51.636;4.948;2023-01-23T08:14:19;4.03;;;2.40;;
59189;SDS011;50749;51.636;4.948;2023-01-23T08:16:48;4.78;;;2.20;;
59189;SDS011;50749;51.636;4.948;2023-01-23T08:19:15;5.70;;;2.72;;
59189;SDS011;50749;51.636;4.948;2023-01-23T08:21:42;4.75;;;2.28;;
59189;SDS011;50749;51.636;4.948;2023-01-23T08:24:11;5.78;;;2.42;;
59189;SDS011;50749;51.636;4.948;2023-01-23T08:26:37;5.65;;;2.53;;
59189;SDS011;50749;51.636;4.948;2023-01-23T08:29:04;5.03;;;2.60;;
59189;SDS011;50749;51.636;4.948;2023-01-23T08:31:30;4.53;;;2.42;;
59189;SDS011;50749;51.636;4.948;2023-01-23T08:33:56;4.43;;;2.35;;
59189;SDS011;50749;51.636;4.948;2023-01-23T08:36:22;6.03;;;2.92;;
59189;SDS011;50749;51.636;4.948;2023-01-23T08:38:48;5.78;;;2.50;;
59189;SDS011;50749;51.636;4.948;2023-01-23T08:41:13;3.88;;;2.30;;
59189;SDS011;50749;51.636;4.948;2023-01-23T08:43:40;3.90;;;2.58;;
59189;SDS011;50749;51.636;4.948;2023-01-23T08:46:06;7.90;;;2.65;;
59189;SDS011;50749;51.636;4.948;2023-01-23T08:48:32;5.68;;;2.35;;
59189;SDS011;50749;51.636;4.948;2023-01-23T08:51:01;6.53;;;2.72;;
59189;SDS011;50749;51.636;4.948;2023-01-23T08:53:29;4.78;;;2.25;;
59189;SDS011;50749;51.636;4.948;2023-01-23T08:55:59;4.70;;;2.83;;
59189;SDS011;50749;51.636;4.948;2023-01-23T08:58:26;5.50;;;2.50;;
59189;SDS011;50749;51.636;4.948;2023-01-23T09:00:52;5.03;;;2.47;;
59189;SDS011;50749;51.636;4.948;2023-01-23T09:03:18;3.88;;;2.53;;
59189;SDS011;50749;51.636;4.948;2023-01-23T09:05:44;4.25;;;2.38;;
59189;SDS011;50749;51.636;4.948;2023-01-23T09:08:10;4.75;;;2.75;;
59189;SDS011;50749;51.636;4.948;2023-01-23T09:10:36;4.55;;;2.30;;
59189;SDS011;50749;51.636;4.948;2023-01-23T09:13:02;3.92;;;2.10;;
59189;SDS011;50749;51.636;4.948;2023-01-23T09:15:28;5.07;;;2.35;;
59189;SDS011;50749;51.636;4.948;2023-01-23T09:17:54;3.97;;;2.35;;
59189;SDS011;50749;51.636;4.948;2023-01-23T09:20:20;6.28;;;2.90;;
59189;SDS011;50749;51.636;4.948;2023-01-23T09:22:47;4.60;;;2.60;;
59189;SDS011;50749;51.636;4.948;2023-01-23T09:25:12;4.03;;;2.67;;
59189;SDS011;50749;51.636;4.948;2023-01-23T09:27:39;4.28;;;2.60;;
59189;SDS011;50749;51.636;4.948;2023-01-23T09:30:05;4.20;;;2.38;;
59189;SDS011;50749;51.636;4.948;2023-01-23T09:32:31;4.93;;;2.42;;
59189;SDS011;50749;51.636;4.948;2023-01-23T09:34:57;3.83;;;2.15;;
59189;SDS011;50749;51.636;4.948;2023-01-23T09:37:23;3.80;;;2.03;;
59189;SDS011;50749;51.636;4.948;2023-01-23T09:39:49;4.45;;;2.28;;
59189;SDS011;50749;51.636;4.948;2023-01-23T09:42:19;5.43;;;2.58;;
59189;SDS011;50749;51.636;4.948;2023-01-23T09:44:52;3.75;;;2.17;;
59189;SDS011;50749;51.636;4.948;2023-01-23T09:47:26;4.00;;;2.22;;
59189;SDS011;50749;51.636;4.948;2023-01-23T09:50:40;3.90;;;2.33;;
59189;SDS011;50749;51.636;4.948;2023-01-23T09:52:54;4.25;;;2.33;;
59189;SDS011;50749;51.636;4.948;2023-01-23T09:58:44;3.40;;;2.42;;
59189;SDS011;50749;51.636;4.948;2023-01-23T10:01:15;3.85;;;2.35;;
59189;SDS011;50749;51.636;4.948;2023-01-23T10:03:41;5.70;;;2.28;;
59189;SDS011;50749;51.636;4.948;2023-01-23T10:09:04;3.75;;;2.53;;
59189;SDS011;50749;51.636;4.948;2023-01-23T10:12:08;5.13;;;2.35;;
59189;SDS011;50749;51.636;4.948;2023-01-23T10:17:28;4.90;;;2.45;;
59189;SDS011;50749;51.636;4.948;2023-01-23T10:22:49;5.70;;;2.70;;
59189;SDS011;50749;51.636;4.948;2023-01-23T10:25:26;4.28;;;2.25;;
59189;SDS011;50749;51.636;4.948;2023-01-23T10:27:59;4.90;;;2.58;;
59189;SDS011;50749;51.636;4.948;2023-01-23T10:30:45;3.38;;;2.28;;
59189;SDS011;50749;51.636;4.948;2023-01-23T10:33:15;4.97;;;2.22;;
59189;SDS011;50749;51.636;4.948;2023-01-23T10:36:01;4.63;;;2.72;;
59189;SDS011;50749;51.636;4.948;2023-01-23T10:38:34;4.38;;;2.30;;
59189;SDS011;50749;51.636;4.948;2023-01-23T10:41:09;4.57;;;2.35;;
59189;SDS011;50749;51.636;4.948;2023-01-23T10:43:40;3.42;;;2.13;;
59189;SDS011;50749;51.636;4.948;2023-01-23T10:46:08;4.60;;;2.30;;
59189;SDS011;50749;51.636;4.948;2023-01-23T10:48:38;3.63;;;2.63;;
59189;SDS011;50749;51.636;4.948;2023-01-23T10:54:05;3.80;;;2.17;;
59189;SDS011;50749;51.636;4.948;2023-01-23T10:56:50;5.75;;;2.63;;
59189;SDS011;50749;51.636;4.948;2023-01-23T10:59:32;3.60;;;2.33;;
59189;SDS011;50749;51.636;4.948;2023-01-23T11:04:44;3.33;;;2.05;;
59189;SDS011;50749;51.636;4.948;2023-01-23T11:07:15;3.47;;;2.13;;
59189;SDS011;50749;51.636;4.948;2023-01-23T11:09:47;3.83;;;2.42;;
59189;SDS011;50749;51.636;4.948;2023-01-23T11:12:20;4.25;;;2.55;;
59189;SDS011;50749;51.636;4.948;2023-01-23T11:14:45;4.78;;;3.00;;
59189;SDS011;50749;51.636;4.948;2023-01-23T11:17:22;5.40;;;2.50;;
59189;SDS011;50749;51.636;4.948;2023-01-23T11:19:50;3.40;;;2.00;;
59189;SDS011;50749;51.636;4.948;2023-01-23T11:22:25;3.92;;;2.38;;
59189;SDS011;50749;51.636;4.948;2023-01-23T11:30:51;3.40;;;2.20;;
59189;SDS011;50749;51.636;4.948;2023-01-23T11:36:12;4.53;;;2.55;;
59189;SDS011;50749;51.636;4.948;2023-01-23T11:41:41;4.03;;;2.20;;
59189;SDS011;50749;51.636;4.948;2023-01-23T11:44:16;5.20;;;2.78;;
59189;SDS011;50749;51.636;4.948;2023-01-23T11:56:20;5.30;;;2.83;;
59189;SDS011;50749;51.636;4.948;2023-01-23T12:04:25;6.85;;;2.35;;
59189;SDS011;50749;51.636;4.948;2023-01-23T12:07:16;4.93;;;2.33;;
59189;SDS011;50749;51.636;4.948;2023-01-23T12:25:37;3.22;;;2.35;;
59189;SDS011;50749;51.636;4.948;2023-01-23T12:42:16;3.15;;;2.05;;
59189;SDS011;50749;51.636;4.948;2023-01-23T12:47:39;3.83;;;2.22;;
59189;SDS011;50749;51.636;4.948;2023-01-23T12:50:16;3.08;;;2.22;;
59189;SDS011;50749;51.636;4.948;2023-01-23T12:52:54;3.67;;;2.38;;
59189;SDS011;50749;51.636;4.948;2023-01-23T12:58:02;3.38;;;2.28;;
59189;SDS011;50749;51.636;4.948;2023-01-23T13:08:30;3.42;;;2.33;;
59189;SDS011;50749;51.636;4.948;2023-01-23T13:16:50;3.88;;;2.35;;
59189;SDS011;50749;51.636;4.948;2023-01-23T13:25:13;2.40;;;1.90;;
59189;SDS011;50749;51.636;4.948;2023-01-23T13:32:59;4.15;;;2.22;;
59189;SDS011;50749;51.636;4.948;2023-01-23T13:43:43;3.38;;;2.40;;
59189;SDS011;50749;51.636;4.948;2023-01-23T13:52:23;3.13;;;2.08;;
59189;SDS011;50749;51.636;4.948;2023-01-23T13:55:17;4.78;;;2.55;;
59189;SDS011;50749;51.636;4.948;2023-01-23T13:58:09;5.20;;;2.30;;
59189;SDS011;50749;51.636;4.948;2023-01-23T14:00:50;3.65;;;2.40;;
59189;SDS011;50749;51.636;4.948;2023-01-23T14:03:41;2.58;;;1.80;;
59189;SDS011;50749;51.636;4.948;2023-01-23T14:06:36;5.15;;;2.50;;
59189;SDS011;50749;51.636;4.948;2023-01-23T14:09:17;4.78;;;2.33;;
59189;SDS011;50749;51.636;4.948;2023-01-23T14:11:45;4.63;;;1.98;;
59189;SDS011;50749;51.636;4.948;2023-01-23T14:14:13;3.97;;;2.47;;
59189;SDS011;50749;51.636;4.948;2023-01-23T14:16:58;3.20;;;2.22;;
59189;SDS011;50749;51.636;4.948;2023-01-23T14:19:24;3.58;;;1.92;;
59189;SDS011;50749;51.636;4.948;2023-01-23T14:21:54;4.13;;;2.17;;
59189;SDS011;50749;51.636;4.948;2023-01-23T14:27:00;4.10;;;2.42;;
59189;SDS011;50749;51.636;4.948;2023-01-23T14:29:32;3.85;;;2.50;;
59189;SDS011;50749;51.636;4.948;2023-01-23T14:31:58;2.88;;;2.40;;
59189;SDS011;50749;51.636;4.948;2023-01-23T14:34:24;5.22;;;2.45;;
59189;SDS011;50749;51.636;4.948;2023-01-23T14:36:53;4.30;;;2.38;;
59189;SDS011;50749;51.636;4.948;2023-01-23T14:39:30;3.50;;;2.35;;
59189;SDS011;50749;51.636;4.948;2023-01-23T14:41:59;3.15;;;2.30;;
59189;SDS011;50749;51.636;4.948;2023-01-23T14:47:02;3.28;;;2.20;;
59189;SDS011;50749;51.636;4.948;2023-01-23T14:49:30;4.80;;;2.20;;
59189;SDS011;50749;51.636;4.948;2023-01-23T14:52:01;3.20;;;2.10;;
59189;SDS011;50749;51.636;4.948;2023-01-23T14:54:29;3.60;;;2.08;;
59189;SDS011;50749;51.636;4.948;2023-01-23T14:56:55;3.28;;;2.20;;
59189;SDS011;50749;51.636;4.948;2023-01-23T15:01:58;3.60;;;2.40;;
59189;SDS011;50749;51.636;4.948;2023-01-23T15:04:25;4.95;;;2.25;;
59189;SDS011;50749;51.636;4.948;2023-01-23T15:06:57;3.03;;;2.10;;
59189;SDS011;50749;51.636;4.948;2023-01-23T15:09:26;3.63;;;2.47;;
59189;SDS011;50749;51.636;4.948;2023-01-23T15:12:05;4.07;;;2.58;;
59189;SDS011;50749;51.636;4.948;2023-01-23T15:14:41;3.45;;;2.45;;
59189;SDS011;50749;51.636;4.948;2023-01-23T15:17:15;4.28;;;2.15;;
59189;SDS011;50749;51.636;4.948;2023-01-23T15:19:48;3.88;;;2.33;;
59189;SDS011;50749;51.636;4.948;2023-01-23T15:24:42;3.72;;;2.08;;
59189;SDS011;50749;51.636;4.948;2023-01-23T15:29:49;4.13;;;2.65;;
59189;SDS011;50749;51.636;4.948;2023-01-23T15:32:19;3.92;;;2.40;;
59189;SDS011;50749;51.636;4.948;2023-01-23T15:34:53;3.58;;;2.35;;
59189;SDS011;50749;51.636;4.948;2023-01-23T15:37:23;3.92;;;1.98;;
59189;SDS011;50749;51.636;4.948;2023-01-23T15:39:52;4.40;;;1.98;;
59189;SDS011;50749;51.636;4.948;2023-01-23T15:44:47;4.15;;;1.95;;
59189;SDS011;50749;51.636;4.948;2023-01-23T15:47:13;3.17;;;2.25;;
59189;SDS011;50749;51.636;4.948;2023-01-23T15:49:39;3.53;;;1.92;;
59189;SDS011;50749;51.636;4.948;2023-01-23T15:52:24;4.60;;;2.63;;
59189;SDS011;50749;51.636;4.948;2023-01-23T15:54:58;4.18;;;2.17;;
59189;SDS011;50749;51.636;4.948;2023-01-23T15:57:27;6.32;;;2.30;;
59189;SDS011;50749;51.636;4.948;2023-01-23T15:59:53;4.45;;;1.83;;
59189;SDS011;50749;51.636;4.948;2023-01-23T16:02:20;4.25;;;2.45;;
59189;SDS011;50749;51.636;4.948;2023-01-23T16:04:47;7.07;;;2.40;;
59189;SDS011;50749;51.636;4.948;2023-01-23T16:07:24;6.60;;;1.92;;
59189;SDS011;50749;51.636;4.948;2023-01-23T16:09:54;4.03;;;2.20;;
59189;SDS011;50749;51.636;4.948;2023-01-23T16:12:22;3.40;;;2.03;;
59189;SDS011;50749;51.636;4.948;2023-01-23T16:14:52;3.38;;;1.70;;
59189;SDS011;50749;51.636;4.948;2023-01-23T16:17:18;3.30;;;1.90;;
59189;SDS011;50749;51.636;4.948;2023-01-23T16:19:44;2.65;;;1.65;;
59189;SDS011;50749;51.636;4.948;2023-01-23T16:22:11;3.00;;;1.75;;
59189;SDS011;50749;51.636;4.948;2023-01-23T16:24:39;2.22;;;1.20;;
59189;SDS011;50749;51.636;4.948;2023-01-23T16:27:09;2.60;;;1.67;;
59189;SDS011;50749;51.636;4.948;2023-01-23T16:29:41;2.75;;;1.55;;
59189;SDS011;50749;51.636;4.948;2023-01-23T16:32:09;2.53;;;1.50;;
59189;SDS011;50749;51.636;4.948;2023-01-23T16:34:35;2.30;;;1.33;;
59189;SDS011;50749;51.636;4.948;2023-01-23T16:37:01;5.82;;;1.70;;
59189;SDS011;50749;51.636;4.948;2023-01-23T16:39:30;2.15;;;1.20;;
59189;SDS011;50749;51.636;4.948;2023-01-23T16:41:58;2.40;;;1.50;;
59189;SDS011;50749;51.636;4.948;2023-01-23T16:44:25;2.08;;;1.40;;
59189;SDS011;50749;51.636;4.948;2023-01-23T16:46:52;2.20;;;1.20;;
59189;SDS011;50749;51.636;4.948;2023-01-23T16:49:18;2.10;;;1.20;;
59189;SDS011;50749;51.636;4.948;2023-01-23T16:51:46;2.53;;;1.35;;
59189;SDS011;50749;51.636;4.948;2023-01-23T16:54:20;2.42;;;1.15;;
59189;SDS011;50749;51.636;4.948;2023-01-23T16:56:47;2.08;;;1.30;;
59189;SDS011;50749;51.636;4.948;2023-01-23T16:59:16;3.13;;;1.55;;
59189;SDS011;50749;51.636;4.948;2023-01-23T17:01:47;2.40;;;1.30;;
59189;SDS011;50749;51.636;4.948;2023-01-23T17:04:16;4.95;;;1.45;;
59189;SDS011;50749;51.636;4.948;2023-01-23T17:06:44;2.95;;;1.30;;
59189;SDS011;50749;51.636;4.948;2023-01-23T17:09:10;1.98;;;1.25;;
59189;SDS011;50749;51.636;4.948;2023-01-23T17:11:38;2.45;;;1.45;;
59189;SDS011;50749;51.636;4.948;2023-01-23T17:14:16;5.68;;;1.70;;
59189;SDS011;50749;51.636;4.948;2023-01-23T17:16:45;4.25;;;1.52;;
59189;SDS011;50749;51.636;4.948;2023-01-23T17:19:17;3.97;;;1.60;;
59189;SDS011;50749;51.636;4.948;2023-01-23T17:21:48;3.83;;;1.40;;
59189;SDS011;50749;51.636;4.948;2023-01-23T17:24:16;2.95;;;1.58;;
59189;SDS011;50749;51.636;4.948;2023-01-23T17:26:42;3.85;;;1.77;;
59189;SDS011;50749;51.636;4.948;2023-01-23T17:29:08;2.90;;;1.75;;